createdAt,value
2018-03-22T00:00:40.783Z,100955.34
2018-03-22T00:03:08.280Z,100956.49
2018-03-22T00:05:35.759Z,100955.08
2018-03-22T00:08:03.257Z,100949.77
2018-03-22T00:10:30.749Z,100953.47
2018-03-22T00:12:58.364Z,100946.80
2018-03-22T00:15:25.845Z,100956.49
2018-03-22T00:17:53.349Z,100949.84
2018-03-22T00:20:20.962Z,100949.86
2018-03-22T00:22:48.459Z,100936.37
2018-03-22T00:25:15.941Z,100927.45
2018-03-22T00:27:43.465Z,100931.73
2018-03-22T00:30:10.937Z,100931.95
2018-03-22T00:32:38.424Z,100929.65
2018-03-22T00:35:06.824Z,100928.77
2018-03-22T00:37:34.332Z,100927.48
2018-03-22T00:40:01.806Z,100916.80
2018-03-22T00:42:29.275Z,100907.34
2018-03-22T00:44:56.756Z,100913.56
2018-03-22T00:47:24.267Z,100902.20
2018-03-22T00:49:51.764Z,100902.81
2018-03-22T00:52:19.242Z,100892.05
2018-03-22T00:54:46.731Z,100885.64
2018-03-22T00:57:14.195Z,100883.23
2018-03-22T00:59:41.674Z,100883.19
2018-03-22T01:02:09.149Z,100881.13
2018-03-22T01:04:36.634Z,100877.39
2018-03-22T01:07:04.123Z,100882.13
2018-03-22T01:09:31.619Z,100874.70
2018-03-22T01:11:59.083Z,100867.90
2018-03-22T01:14:26.564Z,100856.88
2018-03-22T01:16:54.039Z,100861.26
2018-03-22T01:19:21.531Z,100855.84
2018-03-22T01:21:48.996Z,100849.65
2018-03-22T01:24:16.496Z,100842.67
2018-03-22T01:26:43.957Z,100843.66
2018-03-22T01:29:11.434Z,100838.58
2018-03-22T01:31:38.907Z,100828.92
2018-03-22T01:34:06.413Z,100827.27
2018-03-22T01:36:33.891Z,100814.16
2018-03-22T01:39:01.428Z,100812.47
2018-03-22T01:41:28.902Z,100809.38
2018-03-22T01:43:56.403Z,100802.28
2018-03-22T01:46:23.927Z,100797.89
2018-03-22T01:48:51.425Z,100797.20
2018-03-22T01:51:18.895Z,100792.39
2018-03-22T01:53:46.400Z,100787.76
2018-03-22T01:56:13.898Z,100791.91
2018-03-22T01:58:41.391Z,100789.22
2018-03-22T02:01:09.329Z,100780.55
2018-03-22T02:03:36.815Z,100775.05
2018-03-22T02:06:04.284Z,100777.86
2018-03-22T02:08:31.746Z,100768.91
2018-03-22T02:10:59.222Z,100759.75
2018-03-22T02:13:26.708Z,100763.48
2018-03-22T02:15:54.187Z,100757.33
2018-03-22T02:18:21.642Z,100756.06
2018-03-22T02:20:49.133Z,100744.65
2018-03-22T02:23:16.599Z,100734.98
2018-03-22T02:25:44.099Z,100736.66
2018-03-22T02:28:11.581Z,100730.79
2018-03-22T02:30:39.072Z,100729.17
2018-03-22T02:33:06.541Z,100723.10
2018-03-22T02:35:34.023Z,100722.52
2018-03-22T02:38:01.498Z,100714.77
2018-03-22T02:40:28.980Z,100711.74
2018-03-22T02:42:56.443Z,100702.91
2018-03-22T02:45:23.935Z,100693.52
2018-03-22T02:47:51.403Z,100699.23
2018-03-22T02:50:18.905Z,100679.04
2018-03-22T02:52:46.392Z,100675.48
2018-03-22T02:55:13.891Z,100678.38
2018-03-22T02:57:41.355Z,100675.98
2018-03-22T03:00:08.852Z,100673.44
2018-03-22T03:02:36.322Z,100664.34
2018-03-22T03:05:03.823Z,100670.83
2018-03-22T03:07:31.290Z,100657.67
2018-03-22T03:09:58.778Z,100658.14
2018-03-22T03:12:26.260Z,100641.63
2018-03-22T03:14:53.743Z,100642.08
2018-03-22T03:17:21.206Z,100633.41
2018-03-22T03:19:48.690Z,100637.43
2018-03-22T03:22:16.159Z,100625.19
2018-03-22T03:24:46.524Z,100615.08
2018-03-22T03:27:14.006Z,100612.61
2018-03-22T03:29:41.507Z,100607.95
2018-03-22T03:32:08.982Z,100620.56
2018-03-22T03:34:36.450Z,100619.52
2018-03-22T03:37:03.943Z,100610.28
2018-03-22T03:39:31.409Z,100601.04
2018-03-22T03:41:58.914Z,100591.44
2018-03-22T03:44:26.412Z,100587.45
2018-03-22T03:46:53.903Z,100590.55
2018-03-22T03:49:21.374Z,100593.65
2018-03-22T03:51:48.859Z,100595.62
2018-03-22T03:54:16.316Z,100586.55
2018-03-22T03:56:43.797Z,100582.38
2018-03-22T03:59:11.264Z,100587.66
2018-03-22T04:01:38.763Z,100579.61
2018-03-22T04:04:06.250Z,100586.83
2018-03-22T04:06:33.734Z,100578.98
2018-03-22T04:09:01.199Z,100575.05
2018-03-22T04:11:28.683Z,100569.36
2018-03-22T04:13:56.155Z,100565.92
2018-03-22T04:16:23.643Z,100565.09
2018-03-22T04:18:51.115Z,100551.17
2018-03-22T04:21:18.927Z,100543.94
2018-03-22T04:23:46.396Z,100536.60
2018-03-22T04:26:13.910Z,100532.48
2018-03-22T04:28:41.370Z,100538.69
2018-03-22T04:31:08.851Z,100539.83
2018-03-22T04:33:36.327Z,100532.37
2018-03-22T04:36:03.818Z,100538.27
2018-03-22T04:38:31.280Z,100526.34
2018-03-22T04:40:58.760Z,100526.65
2018-03-22T04:43:26.232Z,100521.81
2018-03-22T04:45:53.723Z,100514.60
2018-03-22T04:48:21.196Z,100505.71
2018-03-22T04:50:48.700Z,100498.92
2018-03-22T04:53:16.167Z,100493.85
2018-03-22T04:55:43.646Z,100494.68
2018-03-22T04:58:11.131Z,100494.17
2018-03-22T05:00:38.596Z,100488.19
2018-03-22T05:03:06.091Z,100490.29
2018-03-22T05:05:33.555Z,100492.84
2018-03-22T05:08:01.040Z,100472.33
2018-03-22T05:10:28.507Z,100473.88
2018-03-22T05:12:56.072Z,100464.06
2018-03-22T05:15:23.563Z,100465.11
2018-03-22T05:17:51.052Z,100466.57
2018-03-22T05:20:18.535Z,100472.56
2018-03-22T05:22:46.023Z,100468.30
2018-03-22T05:25:13.487Z,100465.30
2018-03-22T05:27:46.447Z,100469.65
2018-03-22T05:30:13.939Z,100469.03
2018-03-22T05:32:41.425Z,100468.51
2018-03-22T05:35:08.901Z,100472.33
2018-03-22T05:37:36.383Z,100480.91
2018-03-22T05:40:03.864Z,100468.11
2018-03-22T05:42:31.359Z,100464.91
2018-03-22T05:44:58.828Z,100455.83
2018-03-22T05:47:26.313Z,100456.27
2018-03-22T05:49:53.776Z,100459.25
2018-03-22T05:52:21.269Z,100463.70
2018-03-22T05:54:48.746Z,100457.90
2018-03-22T05:57:16.240Z,100463.08
2018-03-22T05:59:43.741Z,100449.33
2018-03-22T06:02:11.227Z,100444.29
2018-03-22T06:04:38.689Z,100447.25
2018-03-22T06:07:06.264Z,100444.89
2018-03-22T06:09:33.740Z,100444.26
2018-03-22T06:12:01.259Z,100440.97
2018-03-22T06:14:28.731Z,100436.52
2018-03-22T06:16:56.227Z,100433.41
2018-03-22T06:19:23.697Z,100422.48
2018-03-22T06:21:51.172Z,100412.88
2018-03-22T06:24:18.656Z,100407.72
2018-03-22T06:26:46.120Z,100403.05
2018-03-22T06:29:13.617Z,100399.50
2018-03-22T06:31:41.090Z,100403.09
2018-03-22T06:34:08.584Z,100418.95
2018-03-22T06:36:36.049Z,100427.63
2018-03-22T06:39:03.531Z,100423.46
2018-03-22T06:41:31.000Z,100424.77
2018-03-22T06:43:58.495Z,100426.30
2018-03-22T06:46:25.962Z,100428.33
2018-03-22T06:48:53.464Z,100420.23
2018-03-22T06:51:20.944Z,100415.22
2018-03-22T06:53:48.427Z,100413.73
2018-03-22T06:56:15.888Z,100416.37
2018-03-22T06:58:43.375Z,100417.05
2018-03-22T07:01:10.844Z,100402.78
2018-03-22T07:03:38.329Z,100402.27
2018-03-22T07:06:05.803Z,100407.72
2018-03-22T07:08:33.297Z,100402.32
2018-03-22T07:11:01.313Z,100396.50
2018-03-22T07:13:28.798Z,100389.69
2018-03-22T07:15:56.260Z,100387.30
2018-03-22T07:18:24.580Z,100376.08
2018-03-22T07:20:52.364Z,100377.03
2018-03-22T07:23:19.851Z,100376.02
2018-03-22T07:25:47.324Z,100365.48
2018-03-22T07:28:14.820Z,100356.23
2018-03-22T07:30:42.287Z,100354.00
2018-03-22T07:33:09.775Z,100354.03
2018-03-22T07:35:37.242Z,100352.55
2018-03-22T07:38:04.731Z,100350.70
2018-03-22T07:40:32.359Z,100351.12
2018-03-22T07:43:05.347Z,100342.98
2018-03-22T07:45:32.832Z,100343.20
2018-03-22T07:48:00.299Z,100345.15
2018-03-22T07:50:27.778Z,100350.34
2018-03-22T07:52:55.256Z,100344.36
2018-03-22T07:55:22.754Z,100338.45
2018-03-22T07:57:50.211Z,100332.19
2018-03-22T08:00:17.716Z,100332.44
2018-03-22T08:02:45.189Z,100325.29
2018-03-22T08:05:12.679Z,100327.19
2018-03-22T08:07:40.146Z,100317.29
2018-03-22T08:10:07.639Z,100312.53
2018-03-22T08:12:35.135Z,100307.52
2018-03-22T08:15:02.631Z,100306.05
2018-03-22T08:17:30.095Z,100301.52
2018-03-22T08:19:58.084Z,100296.98
2018-03-22T08:22:25.571Z,100306.16
2018-03-22T08:24:53.056Z,100291.52
2018-03-22T08:27:21.080Z,100273.26
2018-03-22T08:29:48.575Z,100281.51
2018-03-22T08:32:16.964Z,100282.42
2018-03-22T08:34:44.461Z,100276.03
2018-03-22T08:37:11.929Z,100264.66
2018-03-22T08:39:39.411Z,100276.01
2018-03-22T08:42:06.902Z,100274.56
2018-03-22T08:44:34.390Z,100274.97
2018-03-22T08:47:01.848Z,100274.75
2018-03-22T08:49:29.331Z,100263.92
2018-03-22T08:51:56.803Z,100258.63
2018-03-22T08:54:24.288Z,100260.58
2018-03-22T08:56:51.747Z,100257.26
2018-03-22T08:59:19.273Z,100262.53
2018-03-22T09:01:46.826Z,100252.09
2018-03-22T09:04:14.313Z,100251.47
2018-03-22T09:06:41.784Z,100246.38
2018-03-22T09:09:09.275Z,100232.84
2018-03-22T09:11:36.751Z,100223.35
2018-03-22T09:14:04.205Z,100221.21
2018-03-22T09:16:31.686Z,100214.59
2018-03-22T09:18:59.161Z,100192.87
2018-03-22T09:21:26.639Z,100209.97
2018-03-22T09:23:54.107Z,100200.72
2018-03-22T09:26:21.588Z,100196.02
2018-03-22T09:28:49.049Z,100202.61
2018-03-22T09:31:16.528Z,100179.86
2018-03-22T09:33:44.520Z,100190.30
2018-03-22T09:36:12.018Z,100185.66
2018-03-22T09:38:39.466Z,100177.68
2018-03-22T09:41:07.336Z,100164.11
2018-03-22T09:43:34.791Z,100172.49
2018-03-22T09:46:02.266Z,100182.78
2018-03-22T09:48:29.736Z,100176.47
2018-03-22T09:50:57.215Z,100169.61
2018-03-22T09:53:24.680Z,100167.80
2018-03-22T09:55:52.155Z,100156.91
2018-03-22T09:58:19.668Z,100162.28
2018-03-22T10:00:47.145Z,100155.74
2018-03-22T10:03:14.723Z,100150.87
2018-03-22T10:05:42.193Z,100146.09
2018-03-22T10:08:09.704Z,100153.73
2018-03-22T10:10:37.202Z,100158.63
2018-03-22T10:13:04.678Z,100163.11
2018-03-22T10:15:32.184Z,100163.37
2018-03-22T10:17:59.630Z,100162.34
2018-03-22T10:20:27.099Z,100153.17
2018-03-22T10:22:54.568Z,100133.84
2018-03-22T10:25:22.051Z,100140.34
2018-03-22T10:27:50.369Z,100149.56
2018-03-22T10:30:17.863Z,100147.39
2018-03-22T10:32:45.315Z,100146.57
2018-03-22T10:35:12.824Z,100136.75
2018-03-22T10:37:40.283Z,100147.55
2018-03-22T10:40:07.743Z,100146.94
2018-03-22T10:42:35.230Z,100136.65
2018-03-22T10:45:02.775Z,100129.39
2018-03-22T10:47:30.713Z,100134.47
2018-03-22T10:49:58.204Z,100133.24
2018-03-22T10:52:25.690Z,100123.36
2018-03-22T10:54:53.163Z,100121.78
2018-03-22T10:57:20.636Z,100123.66
2018-03-22T10:59:48.100Z,100135.94
2018-03-22T11:02:21.309Z,100124.56
2018-03-22T11:04:48.776Z,100128.69
2018-03-22T11:07:16.265Z,100120.25
2018-03-22T11:09:44.241Z,100113.73
2018-03-22T11:12:11.731Z,100112.44
2018-03-22T11:14:39.948Z,100109.00
2018-03-22T11:17:07.447Z,100112.64
2018-03-22T11:19:34.906Z,100104.87
2018-03-22T11:22:02.402Z,100093.11
2018-03-22T11:24:29.861Z,100103.38
2018-03-22T11:26:57.335Z,100107.17
2018-03-22T11:29:24.796Z,100087.75
2018-03-22T11:31:52.278Z,100091.69
2018-03-22T11:34:19.845Z,100086.71
2018-03-22T11:36:47.251Z,100071.91
2018-03-22T11:39:14.760Z,100073.92
2018-03-22T11:41:42.216Z,100075.53
2018-03-22T11:44:09.677Z,100070.11
2018-03-22T11:46:37.156Z,100073.23
2018-03-22T11:49:04.632Z,100069.92
2018-03-22T11:51:32.109Z,100063.06
2018-03-22T11:53:59.582Z,100057.50
2018-03-22T11:56:27.162Z,100056.05
2018-03-22T11:58:54.592Z,100051.80
2018-03-22T12:01:22.072Z,100045.83
2018-03-22T12:03:49.566Z,100040.23
2018-03-22T12:06:17.071Z,100022.41
2018-03-22T12:08:44.625Z,100043.86
2018-03-22T12:11:12.110Z,100028.31
2018-03-22T12:13:39.579Z,100043.38
2018-03-22T12:16:07.037Z,100035.39
2018-03-22T12:18:34.503Z,100019.98
2018-03-22T12:21:01.952Z,99994.11
2018-03-22T12:23:29.428Z,100020.98
2018-03-22T12:25:56.884Z,100024.23
2018-03-22T12:28:24.346Z,99983.02
2018-03-22T12:30:51.810Z,99991.79
2018-03-22T12:33:19.305Z,99992.52
2018-03-22T12:35:46.781Z,100013.59
2018-03-22T12:38:14.264Z,100013.14
2018-03-22T12:40:41.745Z,100011.30
2018-03-22T12:43:09.261Z,100016.09
2018-03-22T12:45:36.727Z,100007.42
2018-03-22T12:48:04.683Z,100005.78
2018-03-22T12:50:32.148Z,100003.73
2018-03-22T12:52:59.624Z,100006.25
2018-03-22T12:55:27.104Z,100000.91
2018-03-22T12:57:54.580Z,99990.98
2018-03-22T13:00:22.026Z,99991.48
2018-03-22T13:02:49.495Z,99998.69
2018-03-22T13:05:17.355Z,99974.02
2018-03-22T13:07:44.822Z,99999.49
2018-03-22T13:10:12.275Z,99998.78
2018-03-22T13:12:39.785Z,99990.77
2018-03-22T13:15:07.884Z,100007.50
2018-03-22T13:20:31.458Z,99998.41
2018-03-22T13:22:58.956Z,99998.50
2018-03-22T13:25:26.411Z,100011.09
2018-03-22T13:27:53.890Z,99997.09
2018-03-22T13:30:22.138Z,100001.01
2018-03-22T13:32:49.620Z,100004.88
2018-03-22T13:35:17.131Z,99993.87
2018-03-22T13:37:44.667Z,99992.03
2018-03-22T13:40:12.131Z,99983.19
2018-03-22T13:42:39.598Z,99991.91
2018-03-22T13:45:07.076Z,99980.08
2018-03-22T13:47:34.544Z,99988.27
2018-03-22T13:50:02.041Z,99990.90
2018-03-22T13:52:29.547Z,99986.75
2018-03-22T13:54:57.303Z,99987.24
2018-03-22T13:57:26.630Z,99992.18
2018-03-22T13:59:55.827Z,99989.48
2018-03-22T14:02:23.295Z,99990.62
2018-03-22T14:04:51.253Z,99979.16
2018-03-22T14:07:23.344Z,99984.55
2018-03-22T14:09:58.180Z,99978.37
2018-03-22T14:12:30.823Z,99992.10
2018-03-22T14:15:01.868Z,99990.45
2018-03-22T14:17:29.580Z,99985.96
2018-03-22T14:20:00.364Z,99981.65
2018-03-22T14:22:27.928Z,99981.47
2018-03-22T14:24:55.409Z,99977.92
2018-03-22T14:27:24.870Z,99973.69
2018-03-22T14:29:52.757Z,99974.72
2018-03-22T14:32:20.228Z,99960.88
2018-03-22T14:34:47.753Z,99960.01
2018-03-22T14:37:15.215Z,99960.89
2018-03-22T14:39:42.713Z,99955.66
2018-03-22T14:42:10.192Z,99950.31
2018-03-22T14:44:37.667Z,99941.20
2018-03-22T14:47:05.131Z,99943.83
2018-03-22T14:49:32.609Z,99947.70
2018-03-22T14:52:00.406Z,99932.96
2018-03-22T14:54:27.894Z,99935.04
2018-03-22T14:56:55.367Z,99926.97
2018-03-22T14:59:22.867Z,99938.50
2018-03-22T15:01:50.331Z,99935.26
2018-03-22T15:04:17.806Z,99935.81
2018-03-22T15:06:46.140Z,99937.68
2018-03-22T15:09:13.619Z,99942.03
2018-03-22T15:11:41.076Z,99938.61
2018-03-22T15:14:08.556Z,99940.58
2018-03-22T15:16:36.026Z,99928.42
2018-03-22T15:19:03.510Z,99929.28
2018-03-22T15:21:30.987Z,99915.59
2018-03-22T15:23:58.452Z,99922.28
2018-03-22T15:26:25.928Z,99928.15
2018-03-22T15:28:53.400Z,99920.72
2018-03-22T15:31:20.892Z,99919.69
2018-03-22T15:33:48.352Z,99916.11
2018-03-22T15:36:15.827Z,99925.55
2018-03-22T15:38:43.282Z,99914.04
2018-03-22T15:41:11.607Z,99916.88
2018-03-22T15:43:39.067Z,99912.89
2018-03-22T15:46:06.556Z,99912.74
2018-03-22T15:48:34.015Z,99913.21
2018-03-22T15:51:01.508Z,99909.47
2018-03-22T15:53:28.963Z,99914.83
2018-03-22T15:55:56.631Z,99911.61
2018-03-22T15:58:24.103Z,99911.76
2018-03-22T16:00:51.585Z,99912.89
2018-03-22T16:03:19.054Z,99910.98
2018-03-22T16:05:46.543Z,99904.47
2018-03-22T16:08:14.011Z,99909.32
2018-03-22T16:10:43.118Z,99912.13
2018-03-22T16:13:21.352Z,99911.39
2018-03-22T16:15:48.859Z,99906.31
2018-03-22T16:18:17.394Z,99901.91
2018-03-22T16:20:47.008Z,99909.90
2018-03-22T16:25:52.290Z,99911.72
2018-03-22T16:28:19.755Z,99915.59
2018-03-22T16:30:47.244Z,99919.29
2018-03-22T16:33:14.724Z,99918.38
2018-03-22T16:35:42.199Z,99915.30
2018-03-22T16:38:09.687Z,99928.67
2018-03-22T16:40:37.174Z,99924.00
2018-03-22T16:43:04.640Z,99927.58
2018-03-22T16:45:32.123Z,99925.41
2018-03-22T16:47:59.588Z,99924.72
2018-03-22T16:50:27.071Z,99916.42
2018-03-22T16:52:54.535Z,99919.38
2018-03-22T16:55:22.023Z,99917.39
2018-03-22T16:57:49.475Z,99925.40
2018-03-22T17:00:17.078Z,99925.13
2018-03-22T17:02:44.598Z,99927.77
2018-03-22T17:05:12.079Z,99933.08
2018-03-22T17:07:39.637Z,99930.59
2018-03-22T17:10:07.233Z,99935.11
2018-03-22T17:12:34.946Z,99926.25
2018-03-22T17:15:02.477Z,99924.39
2018-03-22T17:17:29.963Z,99923.94
2018-03-22T17:19:57.416Z,99925.05
2018-03-22T17:22:24.913Z,99931.72
2018-03-22T17:24:52.385Z,99934.15
2018-03-22T17:27:19.867Z,99928.86
2018-03-22T17:29:48.634Z,99932.27
2018-03-22T17:32:21.453Z,99927.48
2018-03-22T17:35:00.938Z,99934.14
2018-03-22T17:37:30.365Z,99920.03
2018-03-22T17:39:59.040Z,99928.24
2018-03-22T17:42:27.461Z,99932.64
2018-03-22T17:44:58.514Z,99928.02
2018-03-22T17:47:26.011Z,99934.34
2018-03-22T17:49:53.516Z,99927.46
2018-03-22T17:52:21.007Z,99923.00
2018-03-22T17:57:36.335Z,99922.09
2018-03-22T18:00:04.322Z,99924.45
2018-03-22T18:02:31.815Z,99917.35
2018-03-22T18:04:59.341Z,99925.01
2018-03-22T18:07:26.827Z,99923.49
2018-03-22T18:09:54.300Z,99928.36
2018-03-22T18:12:21.789Z,99921.97
2018-03-22T18:14:49.348Z,99922.73
2018-03-22T18:17:16.835Z,99924.84
2018-03-22T18:19:45.466Z,99929.41
2018-03-22T18:22:12.953Z,99923.08
2018-03-22T18:24:40.415Z,99937.84
2018-03-22T18:27:07.919Z,99932.32
2018-03-22T18:29:35.403Z,99929.25
2018-03-22T18:32:03.202Z,99937.50
2018-03-22T18:34:30.659Z,99936.26
2018-03-22T18:36:58.144Z,99939.26
2018-03-22T18:39:25.619Z,99933.98
2018-03-22T18:41:53.102Z,99925.35
2018-03-22T18:44:20.554Z,99927.48
2018-03-22T18:46:48.031Z,99923.50
2018-03-22T18:49:15.483Z,99924.20
2018-03-22T18:51:43.442Z,99924.62
2018-03-22T18:54:10.910Z,99920.75
2018-03-22T18:56:38.415Z,99922.08
2018-03-22T18:59:05.889Z,99922.80
2018-03-22T19:01:33.366Z,99920.16
2018-03-22T19:04:00.848Z,99919.44
2018-03-22T19:06:28.354Z,99929.62
2018-03-22T19:08:55.850Z,99928.52
2018-03-22T19:11:23.326Z,99927.17
2018-03-22T19:13:50.810Z,99916.70
2018-03-22T19:16:18.310Z,99913.00
2018-03-22T19:18:45.789Z,99910.73
2018-03-22T19:21:13.255Z,99909.66
2018-03-22T19:23:40.743Z,99914.07
2018-03-22T19:26:08.211Z,99927.72
2018-03-22T19:28:35.692Z,99925.73
2018-03-22T19:31:03.186Z,99908.44
2018-03-22T19:33:30.660Z,99913.11
2018-03-22T19:35:58.139Z,99916.00
2018-03-22T19:38:25.627Z,99917.69
2018-03-22T19:40:53.101Z,99912.42
2018-03-22T19:43:20.587Z,99915.11
2018-03-22T19:45:48.058Z,99919.45
2018-03-22T19:48:16.400Z,99910.20
2018-03-22T19:50:43.864Z,99912.52
2018-03-22T19:53:11.347Z,99918.23
2018-03-22T19:55:38.820Z,99912.19
2018-03-22T19:58:06.305Z,99913.88
2018-03-22T20:00:33.772Z,99913.12
2018-03-22T20:03:01.272Z,99907.14
2018-03-22T20:05:28.790Z,99911.94
2018-03-22T20:07:56.224Z,99909.16
2018-03-22T20:10:23.683Z,99913.05
2018-03-22T20:12:51.158Z,99913.88
2018-03-22T20:15:18.627Z,99915.99
2018-03-22T20:17:46.087Z,99913.59
2018-03-22T20:20:13.567Z,99911.30
2018-03-22T20:22:41.048Z,99918.21
2018-03-22T20:25:08.528Z,99919.86
2018-03-22T20:27:36.006Z,99924.91
2018-03-22T20:30:03.499Z,99915.23
2018-03-22T20:32:30.969Z,99915.69
2018-03-22T20:34:58.454Z,99917.17
2018-03-22T20:37:25.918Z,99919.27
2018-03-22T20:39:53.398Z,99916.69
2018-03-22T20:42:22.807Z,99905.38
2018-03-22T20:44:50.297Z,99907.79
2018-03-22T20:47:17.772Z,99907.95
2018-03-22T20:49:45.260Z,99902.86
2018-03-22T20:52:13.583Z,99908.19
2018-03-22T20:54:41.084Z,99905.16
2018-03-22T20:57:08.551Z,99909.14
2018-03-22T20:59:36.068Z,99903.52
2018-03-22T21:02:03.532Z,99915.89
2018-03-22T21:04:31.015Z,99911.42
2018-03-22T21:06:58.478Z,99916.16
2018-03-22T21:09:26.056Z,99910.44
2018-03-22T21:11:53.435Z,99910.84
2018-03-22T21:14:20.926Z,99913.55
2018-03-22T21:16:48.380Z,99909.19
2018-03-22T21:19:15.870Z,99908.16
2018-03-22T21:21:43.339Z,99907.33
2018-03-22T21:24:10.835Z,99903.20
2018-03-22T21:26:38.325Z,99904.45
2018-03-22T21:29:05.808Z,99894.67
2018-03-22T21:31:33.280Z,99891.98
2018-03-22T21:34:00.755Z,99893.59
2018-03-22T21:36:28.207Z,99886.63
2018-03-22T21:38:55.732Z,99889.91
2018-03-22T21:41:23.187Z,99891.39
2018-03-22T21:44:15.423Z,99890.67
2018-03-22T21:46:42.887Z,99883.80
2018-03-22T21:49:10.375Z,99883.29
2018-03-22T21:51:37.879Z,99882.70
2018-03-22T21:54:05.361Z,99875.38
2018-03-22T21:59:04.120Z,99881.53
2018-03-22T22:01:31.615Z,99876.14
2018-03-22T22:03:59.108Z,99876.55
2018-03-22T22:06:26.594Z,99876.16
2018-03-22T22:08:54.059Z,99871.40
2018-03-22T22:11:21.542Z,99879.96
2018-03-22T22:13:49.004Z,99874.61
2018-03-22T22:16:16.499Z,99877.55
2018-03-22T22:18:43.968Z,99873.45
2018-03-22T22:21:11.447Z,99876.34
2018-03-22T22:23:38.907Z,99867.37
2018-03-22T22:26:06.383Z,99862.50
2018-03-22T22:28:33.840Z,99864.33
2018-03-22T22:31:01.344Z,99864.95
2018-03-22T22:33:28.802Z,99864.84
2018-03-22T22:35:56.288Z,99856.66
2018-03-22T22:38:23.752Z,99854.38
2018-03-22T22:40:51.236Z,99849.14
2018-03-22T22:43:18.695Z,99847.41
2018-03-22T22:45:46.176Z,99839.13
2018-03-22T22:48:13.631Z,99836.97
2018-03-22T22:50:41.112Z,99837.84
2018-03-22T22:53:08.591Z,99831.00
2018-03-22T22:55:36.073Z,99832.58
2018-03-22T22:58:03.540Z,99831.98
2018-03-22T23:00:31.060Z,99829.55
2018-03-22T23:02:58.522Z,99820.75
2018-03-22T23:05:25.999Z,99824.45
2018-03-22T23:07:53.468Z,99823.55
2018-03-22T23:10:20.955Z,99820.34
2018-03-22T23:12:48.426Z,99813.20
2018-03-22T23:15:15.916Z,99809.80
2018-03-22T23:17:43.424Z,99805.24
2018-03-22T23:20:10.889Z,99804.89
2018-03-22T23:22:38.366Z,99804.45
2018-03-22T23:25:05.837Z,99800.83
2018-03-22T23:27:33.336Z,99794.59
2018-03-22T23:30:00.792Z,99795.17
2018-03-22T23:32:28.265Z,99792.52
2018-03-22T23:34:55.741Z,99796.05
2018-03-22T23:37:23.227Z,99787.44
2018-03-22T23:39:50.695Z,99796.56
2018-03-22T23:42:18.190Z,99789.97
2018-03-22T23:44:45.647Z,99794.01
2018-03-22T23:47:13.147Z,99794.22
2018-03-22T23:49:40.611Z,99793.77
2018-03-22T23:52:08.098Z,99781.48
2018-03-22T23:54:35.555Z,99784.87
2018-03-22T23:57:03.060Z,99779.01
2018-03-22T23:59:30.515Z,99780.89
